createdAt,value
2023-05-06T00:01:36.343Z,10.65
2023-05-06T00:04:03.152Z,10.62
2023-05-06T00:06:29.810Z,10.57
2023-05-06T00:08:56.482Z,10.53
2023-05-06T00:11:23.008Z,10.52
2023-05-06T00:13:49.531Z,10.53
2023-05-06T00:16:15.978Z,10.52
2023-05-06T00:18:42.716Z,10.53
2023-05-06T00:21:09.230Z,10.51
2023-05-06T00:23:35.659Z,10.52
2023-05-06T00:26:02.330Z,10.56
2023-05-06T00:28:28.805Z,10.56
2023-05-06T00:30:55.431Z,10.58
2023-05-06T00:33:22.027Z,10.60
2023-05-06T00:35:48.785Z,10.62
2023-05-06T00:38:15.404Z,10.62
2023-05-06T00:40:42.782Z,10.65
2023-05-06T00:43:09.339Z,10.66
2023-05-06T00:45:36.806Z,10.66
2023-05-06T00:48:04.904Z,10.64
2023-05-06T00:50:33.411Z,10.62
2023-05-06T00:53:00.570Z,10.61
2023-05-06T00:55:27.532Z,10.62
2023-05-06T00:57:54.797Z,10.62
2023-05-06T01:00:21.625Z,10.65
2023-05-06T01:02:48.886Z,10.67
2023-05-06T01:05:17.697Z,10.68
2023-05-06T01:07:47.596Z,10.68
2023-05-06T01:10:24.625Z,10.69
2023-05-06T01:13:05.304Z,10.69
2023-05-06T01:15:45.809Z,10.68
2023-05-06T01:18:17.109Z,10.65
2023-05-06T01:20:51.960Z,10.65
2023-05-06T01:23:20.401Z,10.61
2023-05-06T01:25:47.032Z,10.56
2023-05-06T01:28:14.111Z,10.53
2023-05-06T01:31:14.895Z,10.53
2023-05-06T01:33:54.209Z,10.47
2023-05-06T01:36:41.665Z,10.43
2023-05-06T01:39:08.554Z,10.40
2023-05-06T01:41:38.804Z,10.36
2023-05-06T01:44:06.961Z,10.31
2023-05-06T01:46:34.165Z,10.28
2023-05-06T01:49:04.519Z,10.25
2023-05-06T01:51:34.241Z,10.17
2023-05-06T01:54:02.376Z,10.12
2023-05-06T01:56:32.059Z,10.09
2023-05-06T01:58:59.644Z,10.07
2023-05-06T02:01:26.614Z,10.04
2023-05-06T02:03:53.315Z,9.96
2023-05-06T02:06:20.306Z,9.96
2023-05-06T02:08:46.814Z,9.89
2023-05-06T02:11:18.857Z,9.88
2023-05-06T02:13:46.867Z,9.83
2023-05-06T02:16:13.356Z,9.82
2023-05-06T02:18:39.861Z,9.80
2023-05-06T02:21:06.388Z,9.75
2023-05-06T02:23:32.886Z,9.70
2023-05-06T02:25:59.532Z,9.64
2023-05-06T02:28:26.000Z,9.59
2023-05-06T02:30:58.757Z,9.60
2023-05-06T02:33:25.284Z,9.53
2023-05-06T02:35:51.769Z,9.53
2023-05-06T02:38:19.041Z,9.49
2023-05-06T02:40:45.697Z,9.48
2023-05-06T02:43:12.304Z,9.45
2023-05-06T02:45:39.245Z,9.39
2023-05-06T02:48:06.174Z,9.35
2023-05-06T02:50:32.712Z,9.31
2023-05-06T02:52:59.171Z,9.30
2023-05-06T02:55:25.706Z,9.27
2023-05-06T02:57:52.198Z,9.25
2023-05-06T03:00:18.894Z,9.23
2023-05-06T03:02:45.849Z,9.18
2023-05-06T03:05:12.450Z,9.13
2023-05-06T03:07:39.265Z,9.11
2023-05-06T03:10:06.399Z,9.08
2023-05-06T03:12:35.674Z,9.07
2023-05-06T03:15:02.138Z,9.07
2023-05-06T03:17:28.732Z,9.06
2023-05-06T03:19:55.516Z,9.01
2023-05-06T03:22:24.784Z,8.92
2023-05-06T03:24:51.247Z,8.94
2023-05-06T03:27:18.228Z,8.96
2023-05-06T03:29:47.944Z,8.94
2023-05-06T03:32:15.679Z,8.95
2023-05-06T03:34:44.068Z,8.90
2023-05-06T03:37:15.018Z,8.89
2023-05-06T03:39:47.740Z,8.88
2023-05-06T03:42:14.842Z,8.84
2023-05-06T03:44:41.894Z,8.82
2023-05-06T03:47:08.442Z,8.80
2023-05-06T03:49:35.514Z,8.78
2023-05-06T03:52:02.496Z,8.77
2023-05-06T03:54:29.594Z,8.75
2023-05-06T03:56:56.326Z,8.71
2023-05-06T03:59:22.792Z,8.69
2023-05-06T04:01:51.111Z,8.68
2023-05-06T04:04:18.037Z,8.68
2023-05-06T04:06:44.525Z,8.69
2023-05-06T04:09:10.951Z,8.68
2023-05-06T04:11:39.115Z,8.69
2023-05-06T04:14:07.502Z,8.70
2023-05-06T04:16:34.749Z,8.71
2023-05-06T04:19:01.503Z,8.75
2023-05-06T04:21:29.593Z,8.78
2023-05-06T04:24:02.468Z,8.82
2023-05-06T04:26:34.980Z,8.86
2023-05-06T04:29:01.964Z,8.89
2023-05-06T04:31:30.741Z,8.94
2023-05-06T04:34:02.731Z,8.98
2023-05-06T04:36:30.609Z,8.99
2023-05-06T04:39:18.064Z,9.02
2023-05-06T04:41:45.325Z,9.06
2023-05-06T04:44:16.748Z,9.08
2023-05-06T04:46:45.586Z,9.14
2023-05-06T04:49:12.704Z,9.19
2023-05-06T04:51:39.533Z,9.21
2023-05-06T04:54:05.961Z,9.27
2023-05-06T04:56:33.359Z,9.34
2023-05-06T04:58:59.879Z,9.36
2023-05-06T05:01:27.522Z,9.40
2023-05-06T05:03:54.020Z,9.45
2023-05-06T05:06:21.271Z,9.52
2023-05-06T05:08:48.369Z,9.59
2023-05-06T05:11:14.893Z,9.61
2023-05-06T05:13:42.350Z,9.69
2023-05-06T05:16:08.986Z,9.79
2023-05-06T05:18:38.152Z,9.82
2023-05-06T05:21:12.021Z,9.92
2023-05-06T05:23:38.553Z,10.11
2023-05-06T05:26:05.024Z,10.28
2023-05-06T05:28:32.195Z,10.50
2023-05-06T05:31:05.377Z,10.75
2023-05-06T05:33:34.948Z,10.86
2023-05-06T05:36:04.233Z,10.88
2023-05-06T05:38:31.428Z,10.88
2023-05-06T05:40:59.097Z,10.88
2023-05-06T05:43:26.970Z,10.93
2023-05-06T05:45:54.840Z,11.00
2023-05-06T05:48:21.328Z,11.05
2023-05-06T05:50:48.300Z,11.09
2023-05-06T05:53:14.933Z,11.12
2023-05-06T05:55:41.487Z,11.12
2023-05-06T05:58:09.944Z,11.14
2023-05-06T06:00:36.470Z,11.15
2023-05-06T06:03:10.244Z,11.21
2023-05-06T06:05:38.099Z,11.25
2023-05-06T06:08:05.247Z,11.28
2023-05-06T06:10:32.224Z,11.33
2023-05-06T06:13:03.092Z,11.35
2023-05-06T06:15:32.425Z,11.40
2023-05-06T06:17:59.092Z,11.48
2023-05-06T06:20:27.374Z,11.54
2023-05-06T06:22:53.797Z,11.59
2023-05-06T06:25:21.421Z,11.62
2023-05-06T06:27:47.862Z,11.69
2023-05-06T06:30:14.420Z,11.76
2023-05-06T06:32:49.380Z,11.81
2023-05-06T06:35:16.270Z,11.89
2023-05-06T06:37:43.129Z,11.93
2023-05-06T06:40:11.033Z,11.99
2023-05-06T06:42:37.985Z,12.06
2023-05-06T06:45:23.638Z,12.16
2023-05-06T06:47:50.145Z,12.21
2023-05-06T06:50:16.669Z,12.28
2023-05-06T06:52:43.161Z,12.32
2023-05-06T06:55:10.355Z,12.35
2023-05-06T06:57:37.894Z,12.40
2023-05-06T07:00:05.068Z,12.42
2023-05-06T07:02:31.656Z,12.48
2023-05-06T07:04:58.170Z,12.57
2023-05-06T07:07:24.666Z,12.69
2023-05-06T07:09:51.422Z,12.90
2023-05-06T07:12:17.957Z,12.97
2023-05-06T07:14:44.465Z,13.15
2023-05-06T07:17:11.203Z,13.32
2023-05-06T07:19:37.683Z,13.54
2023-05-06T07:22:04.084Z,13.80
2023-05-06T07:24:30.562Z,14.00
2023-05-06T07:26:57.647Z,14.23
2023-05-06T07:29:24.234Z,14.26
2023-05-06T07:31:50.661Z,14.30
2023-05-06T07:34:17.111Z,14.31
2023-05-06T07:36:44.731Z,14.42
2023-05-06T07:39:12.435Z,14.42
2023-05-06T07:41:38.948Z,14.51
2023-05-06T07:44:06.394Z,14.66
2023-05-06T07:46:33.190Z,14.84
2023-05-06T07:48:59.759Z,15.04
2023-05-06T07:51:26.751Z,15.17
2023-05-06T07:53:53.135Z,15.55
2023-05-06T07:56:19.532Z,15.88
2023-05-06T07:58:46.153Z,16.04
2023-05-06T08:01:12.573Z,16.05
2023-05-06T08:03:39.212Z,16.17
2023-05-06T08:06:06.792Z,16.36
2023-05-06T08:08:33.335Z,16.42
2023-05-06T08:11:00.024Z,16.53
2023-05-06T08:13:27.005Z,16.60
2023-05-06T08:15:53.897Z,16.53
2023-05-06T08:18:22.755Z,16.61
2023-05-06T08:20:49.877Z,16.63
2023-05-06T08:23:16.430Z,16.78
2023-05-06T08:25:43.051Z,17.10
2023-05-06T08:28:09.593Z,17.36
2023-05-06T08:30:36.571Z,17.42
2023-05-06T08:33:03.149Z,17.36
2023-05-06T08:35:29.606Z,17.29
2023-05-06T08:37:56.169Z,17.47
2023-05-06T08:40:23.921Z,17.55
2023-05-06T08:42:50.736Z,17.65
2023-05-06T08:45:17.868Z,17.83
2023-05-06T08:47:44.523Z,17.93
2023-05-06T08:50:11.501Z,18.01
2023-05-06T08:52:41.195Z,17.97
2023-05-06T08:55:09.746Z,18.04
2023-05-06T08:57:37.179Z,18.09
2023-05-06T09:00:04.878Z,18.09
2023-05-06T09:02:31.390Z,18.21
2023-05-06T09:04:57.941Z,18.28
2023-05-06T09:07:24.417Z,18.22
2023-05-06T09:09:51.459Z,18.27
2023-05-06T09:12:17.980Z,18.35
2023-05-06T09:14:44.436Z,18.27
2023-05-06T09:17:23.689Z,18.45
2023-05-06T09:19:54.792Z,18.66
2023-05-06T09:22:22.532Z,18.93
2023-05-06T09:24:56.995Z,19.08
2023-05-06T09:27:28.363Z,19.23
2023-05-06T09:30:11.982Z,19.36
2023-05-06T09:32:40.155Z,19.45
2023-05-06T09:35:08.431Z,19.65
2023-05-06T09:37:35.157Z,19.81
2023-05-06T09:40:01.736Z,19.89
2023-05-06T09:42:29.945Z,19.68
2023-05-06T09:45:01.261Z,19.57
2023-05-06T09:47:34.492Z,19.84
2023-05-06T09:50:04.761Z,20.27
2023-05-06T09:52:31.460Z,20.37
2023-05-06T09:54:59.290Z,20.23
2023-05-06T09:57:25.810Z,20.06
2023-05-06T09:59:54.078Z,19.84
2023-05-06T10:02:22.969Z,20.20
2023-05-06T10:04:50.484Z,20.42
2023-05-06T10:07:22.487Z,20.56
2023-05-06T10:09:50.017Z,20.68
2023-05-06T10:12:17.920Z,20.80
2023-05-06T10:14:44.478Z,20.90
2023-05-06T10:17:12.509Z,20.78
2023-05-06T10:19:46.842Z,20.87
2023-05-06T10:22:30.256Z,21.04
2023-05-06T10:25:05.483Z,20.90
2023-05-06T10:27:37.807Z,20.74
2023-05-06T10:30:05.320Z,20.86
2023-05-06T10:32:32.826Z,20.92
2023-05-06T10:35:09.381Z,21.07
2023-05-06T10:37:38.150Z,21.27
2023-05-06T10:40:05.603Z,21.66
2023-05-06T10:42:37.918Z,21.91
2023-05-06T10:45:06.090Z,21.75
2023-05-06T10:47:55.898Z,21.86
2023-05-06T10:50:26.768Z,21.74
2023-05-06T10:52:58.917Z,21.70
2023-05-06T10:55:30.986Z,22.01
2023-05-06T10:58:02.185Z,21.88
2023-05-06T11:00:33.016Z,22.06
2023-05-06T11:03:11.500Z,22.20
2023-05-06T11:05:48.966Z,22.43
2023-05-06T11:08:22.575Z,22.24
2023-05-06T11:10:49.011Z,22.05
2023-05-06T11:13:27.559Z,21.88
2023-05-06T11:15:56.340Z,21.83
2023-05-06T11:18:26.456Z,21.79
2023-05-06T11:21:00.741Z,21.84
2023-05-06T11:23:42.404Z,22.13
2023-05-06T11:26:13.695Z,22.26
2023-05-06T11:28:43.636Z,22.44
2023-05-06T11:31:12.155Z,22.65
2023-05-06T11:33:46.513Z,22.50
2023-05-06T11:36:17.970Z,22.32
2023-05-06T11:38:46.038Z,22.46
2023-05-06T11:41:13.499Z,22.49
2023-05-06T11:43:40.209Z,22.70
2023-05-06T11:46:06.832Z,22.90
2023-05-06T11:48:33.283Z,23.00
2023-05-06T11:51:00.354Z,23.17
2023-05-06T11:53:26.931Z,23.41
2023-05-06T11:55:53.824Z,23.40
2023-05-06T11:58:24.785Z,23.29
2023-05-06T12:01:01.945Z,23.55
2023-05-06T12:03:31.292Z,23.45
2023-05-06T12:05:58.481Z,23.38
2023-05-06T12:08:34.568Z,23.55
2023-05-06T12:11:03.384Z,23.41
2023-05-06T12:13:30.175Z,23.20
2023-05-06T12:15:59.421Z,23.08
2023-05-06T12:18:27.259Z,22.98
2023-05-06T12:21:00.963Z,23.14
2023-05-06T12:23:27.539Z,23.33
2023-05-06T12:26:05.421Z,23.36
2023-05-06T12:28:33.218Z,23.34
2023-05-06T12:31:00.727Z,23.57
2023-05-06T12:33:27.353Z,23.52
2023-05-06T12:35:57.053Z,23.40
2023-05-06T12:38:23.505Z,23.02
2023-05-06T12:40:54.793Z,22.83
2023-05-06T12:43:30.348Z,22.75
2023-05-06T12:46:07.783Z,22.61
2023-05-06T12:48:34.476Z,22.66
2023-05-06T12:51:01.230Z,22.89
2023-05-06T12:53:35.194Z,22.77
2023-05-06T12:56:01.660Z,22.97
2023-05-06T12:58:28.189Z,23.18
2023-05-06T13:00:54.648Z,23.04
2023-05-06T13:03:21.374Z,22.90
2023-05-06T13:05:50.018Z,22.78
2023-05-06T13:08:16.542Z,22.90
2023-05-06T13:10:42.974Z,22.99
2023-05-06T13:13:09.530Z,23.04
2023-05-06T13:15:36.364Z,23.04
2023-05-06T13:18:02.985Z,23.03
2023-05-06T13:20:30.313Z,22.98
2023-05-06T13:22:56.709Z,22.97
2023-05-06T13:25:23.503Z,23.03
2023-05-06T13:27:49.924Z,23.45
2023-05-06T13:30:16.981Z,23.46
2023-05-06T13:32:43.546Z,23.34
2023-05-06T13:35:10.391Z,23.53
2023-05-06T13:37:37.096Z,23.84
2023-05-06T13:40:04.781Z,23.84
2023-05-06T13:42:31.268Z,23.82
2023-05-06T13:44:57.659Z,23.81
2023-05-06T13:47:24.300Z,24.06
2023-05-06T13:49:51.012Z,23.89
2023-05-06T13:52:17.452Z,23.87
2023-05-06T13:54:44.924Z,23.46
2023-05-06T13:57:11.405Z,23.21
2023-05-06T13:59:37.860Z,23.03
2023-05-06T14:02:08.791Z,22.88
2023-05-06T14:04:36.137Z,22.91
2023-05-06T14:07:02.682Z,23.11
2023-05-06T14:09:29.177Z,23.40
2023-05-06T14:11:55.652Z,23.54
2023-05-06T14:14:22.052Z,23.44
2023-05-06T14:16:48.533Z,23.48
2023-05-06T14:19:14.943Z,23.46
2023-05-06T14:21:41.327Z,23.47
2023-05-06T14:24:08.125Z,23.58
2023-05-06T14:26:34.800Z,23.41
2023-05-06T14:29:01.367Z,23.21
2023-05-06T14:31:29.516Z,23.01
2023-05-06T14:33:56.459Z,23.13
2023-05-06T14:36:22.915Z,23.24
2023-05-06T14:38:49.328Z,23.30
2023-05-06T14:41:15.740Z,23.42
2023-05-06T14:43:42.142Z,23.51
2023-05-06T14:46:08.711Z,23.49
2023-05-06T14:48:35.272Z,23.31
2023-05-06T14:51:01.746Z,23.16
2023-05-06T14:53:28.379Z,23.03
2023-05-06T14:55:56.293Z,22.92
2023-05-06T14:58:22.817Z,22.91
2023-05-06T15:00:49.370Z,22.92
2023-05-06T15:03:15.895Z,22.80
2023-05-06T15:05:42.334Z,22.63
2023-05-06T15:08:09.850Z,22.61
2023-05-06T15:10:36.412Z,22.45
2023-05-06T15:13:03.020Z,22.37
2023-05-06T15:15:29.558Z,22.45
2023-05-06T15:17:56.309Z,22.51
2023-05-06T15:20:22.849Z,22.58
2023-05-06T15:22:49.352Z,22.59
2023-05-06T15:25:30.424Z,22.59
2023-05-06T15:28:00.586Z,22.55
2023-05-06T15:30:27.095Z,22.40
2023-05-06T15:32:53.598Z,22.37
2023-05-06T15:35:20.279Z,22.29
2023-05-06T15:37:46.910Z,22.30
2023-05-06T15:40:13.565Z,22.33
2023-05-06T15:42:40.716Z,22.28
2023-05-06T15:45:07.698Z,22.34
2023-05-06T15:47:34.212Z,22.39
2023-05-06T15:50:01.613Z,22.39
2023-05-06T15:52:28.493Z,22.39
2023-05-06T15:54:59.437Z,22.47
2023-05-06T15:57:26.356Z,22.47
2023-05-06T15:59:52.791Z,22.44
2023-05-06T16:04:48.964Z,22.16
2023-05-06T16:07:15.659Z,22.18
2023-05-06T16:09:42.777Z,22.20
2023-05-06T16:12:09.950Z,22.21
2023-05-06T16:14:36.406Z,22.26
2023-05-06T16:17:03.041Z,22.24
2023-05-06T16:19:32.022Z,22.21
2023-05-06T16:21:58.550Z,22.18
2023-05-06T16:24:24.983Z,22.11
2023-05-06T16:26:51.818Z,21.98
2023-05-06T16:29:20.506Z,21.82
2023-05-06T16:31:47.904Z,21.80
2023-05-06T16:34:14.940Z,21.79
2023-05-06T16:36:41.433Z,21.78
2023-05-06T16:39:08.411Z,21.67
2023-05-06T16:41:34.922Z,21.70
2023-05-06T16:44:01.683Z,21.59
2023-05-06T16:46:28.881Z,21.48
2023-05-06T16:48:55.832Z,21.47
2023-05-06T16:51:22.551Z,21.45
2023-05-06T16:53:49.047Z,21.39
2023-05-06T16:56:15.541Z,21.32
2023-05-06T16:58:42.696Z,21.32
2023-05-06T17:01:09.680Z,21.37
2023-05-06T17:03:40.316Z,21.36
2023-05-06T17:06:07.793Z,21.30
2023-05-06T17:08:36.350Z,21.18
2023-05-06T17:11:06.373Z,21.13
2023-05-06T17:13:33.210Z,21.10
2023-05-06T17:15:59.836Z,21.06
2023-05-06T17:18:26.414Z,20.98
2023-05-06T17:20:56.651Z,21.00
2023-05-06T17:23:23.920Z,20.98
2023-05-06T17:25:51.154Z,20.89
2023-05-06T17:28:18.837Z,20.86
2023-05-06T17:30:45.768Z,20.85
2023-05-06T17:33:12.292Z,20.80
2023-05-06T17:35:38.864Z,20.76
2023-05-06T17:38:05.447Z,20.72
2023-05-06T17:40:31.927Z,20.69
2023-05-06T17:42:58.408Z,20.63
2023-05-06T17:45:26.638Z,20.51
2023-05-06T17:47:53.187Z,20.06
2023-05-06T17:50:19.825Z,19.70
2023-05-06T17:52:48.752Z,19.44
2023-05-06T17:55:17.408Z,19.13
2023-05-06T17:57:44.191Z,18.99
2023-05-06T18:00:11.418Z,18.80
2023-05-06T18:02:42.347Z,18.60
2023-05-06T18:05:09.340Z,18.50
2023-05-06T18:07:36.113Z,18.27
2023-05-06T18:10:02.555Z,18.32
2023-05-06T18:12:29.160Z,18.21
2023-05-06T18:14:56.752Z,18.12
2023-05-06T18:17:23.506Z,18.00
2023-05-06T18:19:50.029Z,17.85
2023-05-06T18:22:16.444Z,17.77
2023-05-06T18:24:42.886Z,17.68
2023-05-06T18:27:09.350Z,17.60
2023-05-06T18:29:35.852Z,17.53
2023-05-06T18:32:02.367Z,17.50
2023-05-06T18:34:29.025Z,17.44
2023-05-06T18:36:55.561Z,17.40
2023-05-06T18:39:25.285Z,17.23
2023-05-06T18:41:51.685Z,17.13
2023-05-06T18:44:18.102Z,17.09
2023-05-06T18:46:44.532Z,17.09
2023-05-06T18:49:11.211Z,17.08
2023-05-06T18:51:37.714Z,17.02
2023-05-06T18:54:04.259Z,17.00
2023-05-06T18:56:30.836Z,16.95
2023-05-06T18:58:57.410Z,16.91
2023-05-06T19:01:24.972Z,16.79
2023-05-06T19:03:54.499Z,16.70
2023-05-06T19:06:21.016Z,16.72
2023-05-06T19:08:47.624Z,16.66
2023-05-06T19:11:16.029Z,16.65
2023-05-06T19:13:43.733Z,16.67
2023-05-06T19:16:10.974Z,16.71
2023-05-06T19:18:37.463Z,16.72
2023-05-06T19:21:04.489Z,16.73
2023-05-06T19:23:32.265Z,16.70
2023-05-06T19:25:58.731Z,16.67
2023-05-06T19:28:25.213Z,16.68
2023-05-06T19:30:51.765Z,16.64
2023-05-06T19:33:18.582Z,16.66
2023-05-06T19:35:45.087Z,16.63
2023-05-06T19:38:11.503Z,16.60
2023-05-06T19:40:37.919Z,16.59
2023-05-06T19:43:04.581Z,16.55
2023-05-06T19:45:32.541Z,16.54
2023-05-06T19:48:00.217Z,16.56
2023-05-06T19:50:28.218Z,16.53
2023-05-06T19:52:54.666Z,16.51
2023-05-06T19:55:21.427Z,16.49
2023-05-06T19:57:47.825Z,16.50
2023-05-06T20:00:18.055Z,16.48
2023-05-06T20:02:45.321Z,16.46
2023-05-06T20:05:12.132Z,16.42
2023-05-06T20:07:38.944Z,16.39
2023-05-06T20:10:06.193Z,16.37
2023-05-06T20:12:33.267Z,16.34
2023-05-06T20:14:59.743Z,16.30
2023-05-06T20:17:26.774Z,16.23
2023-05-06T20:19:53.355Z,16.21
2023-05-06T20:22:19.853Z,16.20
2023-05-06T20:24:46.613Z,16.15
2023-05-06T20:27:13.123Z,16.14
2023-05-06T20:29:39.661Z,16.10
2023-05-06T20:32:06.166Z,16.10
2023-05-06T20:34:32.713Z,16.07
2023-05-06T20:37:00.516Z,16.05
2023-05-06T20:39:26.983Z,16.03
2023-05-06T20:41:53.401Z,16.04
2023-05-06T20:44:19.802Z,16.01
2023-05-06T20:46:46.230Z,16.00
2023-05-06T20:49:12.672Z,15.97
2023-05-06T20:51:39.156Z,15.94
2023-05-06T20:54:05.775Z,15.92
2023-05-06T20:56:32.302Z,15.87
2023-05-06T20:58:58.724Z,15.82
2023-05-06T21:01:26.691Z,15.79
2023-05-06T21:03:53.327Z,15.79
2023-05-06T21:06:20.937Z,15.79
2023-05-06T21:08:47.412Z,15.80
2023-05-06T21:11:14.165Z,15.75
2023-05-06T21:13:40.874Z,15.68
2023-05-06T21:16:07.506Z,15.60
2023-05-06T21:18:34.038Z,15.57
2023-05-06T21:21:00.599Z,15.55
2023-05-06T21:23:27.209Z,15.54
2023-05-06T21:25:53.758Z,15.52
2023-05-06T21:28:20.306Z,15.53
2023-05-06T21:30:46.816Z,15.52
2023-05-06T21:33:13.371Z,15.51
2023-05-06T21:35:40.012Z,15.51
2023-05-06T21:38:06.782Z,15.51
2023-05-06T21:40:33.297Z,15.50
2023-05-06T21:42:59.849Z,15.47
2023-05-06T21:45:26.733Z,15.45
2023-05-06T21:47:53.384Z,15.38
2023-05-06T21:50:19.885Z,15.31
2023-05-06T21:52:46.301Z,15.27
2023-05-06T21:55:13.090Z,15.18
2023-05-06T21:57:39.813Z,15.13
2023-05-06T22:00:12.328Z,15.11
2023-05-06T22:02:40.316Z,15.10
2023-05-06T22:05:07.973Z,15.07
2023-05-06T22:07:35.612Z,15.04
2023-05-06T22:10:02.176Z,15.01
2023-05-06T22:12:28.650Z,14.99
2023-05-06T22:14:55.183Z,14.97
2023-05-06T22:17:22.324Z,14.96
2023-05-06T22:19:49.072Z,14.92
2023-05-06T22:22:16.187Z,14.89
2023-05-06T22:24:42.616Z,14.86
2023-05-06T22:27:09.054Z,14.83
2023-05-06T22:29:35.598Z,14.81
2023-05-06T22:32:02.309Z,14.78
2023-05-06T22:34:28.800Z,14.80
2023-05-06T22:36:58.044Z,14.82
2023-05-06T22:39:24.823Z,14.80
2023-05-06T22:41:52.296Z,14.78
2023-05-06T22:44:18.783Z,14.74
2023-05-06T22:46:45.488Z,14.74
2023-05-06T22:49:11.914Z,14.77
2023-05-06T22:51:38.500Z,14.80
2023-05-06T22:54:05.054Z,14.79
2023-05-06T22:56:31.537Z,14.79
2023-05-06T22:58:58.019Z,14.77
2023-05-06T23:01:26.060Z,14.76
2023-05-06T23:03:52.781Z,14.75
2023-05-06T23:06:19.330Z,14.76
2023-05-06T23:08:45.827Z,14.76
2023-05-06T23:11:12.346Z,14.74
2023-05-06T23:13:38.875Z,14.72
2023-05-06T23:16:07.627Z,14.68
2023-05-06T23:18:34.169Z,14.64
2023-05-06T23:21:00.644Z,14.63
2023-05-06T23:23:27.164Z,14.60
2023-05-06T23:25:53.631Z,14.56
2023-05-06T23:28:20.918Z,14.55
2023-05-06T23:30:47.584Z,14.52
2023-05-06T23:33:14.281Z,14.50
2023-05-06T23:35:41.062Z,14.52
2023-05-06T23:38:07.612Z,14.51
2023-05-06T23:40:34.103Z,14.46
2023-05-06T23:43:00.657Z,14.45
2023-05-06T23:45:27.717Z,14.41
2023-05-06T23:47:54.298Z,14.37
2023-05-06T23:50:20.906Z,14.35
2023-05-06T23:52:47.431Z,14.33
2023-05-06T23:55:14.078Z,14.32
2023-05-06T23:57:40.844Z,14.31
